Time;durP1;ratioP1;P1;durP2;ratioP2;P2;SDS_P1;SDS_P2;PMS_P1;PMS_P2;Temp;Humidity;BMP_temperature;BMP_pressure;BME280_temperature;BME280_humidity;BME280_pressure;Samples;Min_cycle;Max_cycle;Signal;HPM_P1;HPM_P2
2022/02/21 00:00:33;;;;;;;0.90;0.47;;;10.20;99.90;;;;;;5070316;28;20203;-74
2022/02/21 00:03:00;;;;;;;4.40;0.53;;;10.10;99.90;;;;;;5069775;28;20666;-74
2022/02/21 00:05:27;;;;;;;0.73;0.37;;;10.20;99.90;;;;;;5070156;28;20491;-74
2022/02/21 00:07:55;;;;;;;2.47;0.60;;;10.10;99.90;;;;;;5070604;28;20228;-74
2022/02/21 00:10:23;;;;;;;1.03;0.50;;;10.20;99.90;;;;;;5070729;28;20298;-74
2022/02/21 00:12:50;;;;;;;1.13;0.27;;;10.30;1.00;;;;;;5068980;28;20215;-73
2022/02/21 00:15:23;;;;;;;1.07;0.60;;;10.40;99.90;;;;;;5070210;28;20205;-74
2022/02/21 00:17:50;;;;;;;1.73;0.63;;;10.30;1.00;;;;;;5071555;28;20672;-74
2022/02/21 00:20:17;;;;;;;2.13;0.40;;;10.30;1.00;;;;;;5068848;28;20206;-74
2022/02/21 00:22:44;;;;;;;0.23;0.20;;;10.40;1.00;;;;;;5071802;28;20211;-74
2022/02/21 00:25:13;;;;;;;0.53;0.30;;;10.30;99.90;;;;;;5072414;28;20194;-73
2022/02/21 00:27:40;;;;;;;2.80;0.53;;;10.30;99.90;;;;;;5074569;28;20214;-73
2022/02/21 00:30:08;;;;;;;4.00;0.77;;;10.30;99.90;;;;;;5072959;28;20233;-73
2022/02/21 00:32:35;;;;;;;5.63;0.90;;;8.10;1.00;;;;;;5071004;28;20206;-73
2022/02/21 00:35:02;;;;;;;1.87;0.40;;;6.80;1.00;;;;;;5072533;28;20225;-73
2022/02/21 00:37:29;;;;;;;2.20;0.20;;;6.80;91.10;;;;;;5074458;28;20268;-73
2022/02/21 00:39:56;;;;;;;1.67;0.33;;;7.00;1.00;;;;;;5071614;28;20595;-73
2022/02/21 00:42:24;;;;;;;1.27;0.30;;;7.30;1.00;;;;;;5074856;28;20217;-74
2022/02/21 00:44:55;;;;;;;0.77;0.20;;;7.30;1.00;;;;;;5066920;28;20201;-73
2022/02/21 00:47:22;;;;;;;1.57;0.37;;;7.40;1.00;;;;;;5068460;28;20198;-74
2022/02/21 00:49:49;;;;;;;1.40;0.27;;;7.40;99.90;;;;;;5073501;28;20200;-73
2022/02/21 00:52:15;;;;;;;0.50;0.30;;;7.40;1.00;;;;;;5074038;28;20198;-74
2022/02/21 00:54:42;;;;;;;1.00;0.40;;;7.30;1.00;;;;;;5071556;28;20564;-74
2022/02/21 00:57:09;;;;;;;0.30;0.20;;;7.40;1.00;;;;;;5073555;28;20198;-74
2022/02/21 00:59:37;;;;;;;1.23;0.20;;;7.40;99.90;;;;;;5066711;28;20222;-74
2022/02/21 01:02:05;;;;;;;2.17;0.30;;;7.40;99.90;;;;;;5080327;28;20211;-74
2022/02/21 01:04:32;;;;;;;0.57;0.20;;;7.50;99.90;;;;;;5070641;28;20563;-74
2022/02/21 01:06:59;;;;;;;0.77;0.20;;;7.50;99.90;;;;;;5071908;28;20671;-74
2022/02/21 01:09:26;;;;;;;1.17;0.17;;;7.50;99.90;;;;;;5071641;28;20209;-74
2022/02/21 01:11:53;;;;;;;0.80;0.30;;;7.50;99.90;;;;;;5066700;28;20199;-71
2022/02/21 01:14:20;;;;;;;0.10;0.00;;;7.50;99.90;;;;;;5071183;28;20205;-71
2022/02/21 01:16:48;;;;;;;1.17;0.30;;;7.40;1.00;;;;;;5070977;28;20210;-71
2022/02/21 01:19:15;;;;;;;1.60;0.40;;;7.40;1.00;;;;;;5073921;28;20694;-72
2022/02/21 01:21:42;;;;;;;2.30;0.63;;;7.30;1.00;;;;;;5073351;28;20209;-72
2022/02/21 01:24:08;;;;;;;1.07;0.30;;;7.30;1.00;;;;;;5073312;28;20641;-72
2022/02/21 01:26:35;;;;;;;0.60;0.30;;;7.30;1.00;;;;;;5072437;28;20214;-72
2022/02/21 01:29:02;;;;;;;0.70;0.40;;;7.40;99.90;;;;;;5068872;28;20194;-72
2022/02/21 01:31:29;;;;;;;1.57;0.50;;;7.50;1.00;;;;;;5074080;28;20653;-72
2022/02/21 01:33:57;;;;;;;1.03;0.20;;;7.50;1.00;;;;;;5069569;28;20205;-72
2022/02/21 01:36:24;;;;;;;0.40;0.20;;;7.40;1.00;;;;;;5072517;28;20198;-72
2022/02/21 01:38:51;;;;;;;0.47;0.20;;;7.40;1.00;;;;;;5073674;28;20225;-72
2022/02/21 01:41:18;;;;;;;0.40;0.37;;;7.30;99.90;;;;;;5073360;28;20202;-72
2022/02/21 01:43:47;;;;;;;0.27;0.17;;;7.30;99.90;;;;;;5066131;28;20202;-72
2022/02/21 01:46:14;;;;;;;0.33;0.20;;;7.30;6.50;;;;;;5073570;28;20344;-72
2022/02/21 01:48:40;;;;;;;0.43;0.30;;;7.30;1.00;;;;;;5073648;28;20580;-72
2022/02/21 01:51:09;;;;;;;0.30;0.30;;;7.30;99.90;;;;;;5069375;28;20293;-72
2022/02/21 01:53:36;;;;;;;0.20;0.20;;;7.30;1.00;;;;;;5072164;28;20207;-72
2022/02/21 01:56:04;;;;;;;1.03;0.40;;;7.30;1.00;;;;;;5072871;28;20233;-72
2022/02/21 01:58:31;;;;;;;1.53;0.50;;;7.10;1.00;;;;;;5073254;28;20230;-72
2022/02/21 02:00:58;;;;;;;3.83;0.40;;;7.10;1.00;;;;;;5072833;28;20205;-72
2022/02/21 02:03:25;;;;;;;0.20;0.17;;;7.10;1.00;;;;;;5070524;28;20206;-72
2022/02/21 02:05:52;;;;;;;1.20;0.33;;;7.10;1.00;;;;;;5072193;28;20656;-72
2022/02/21 02:08:20;;;;;;;0.40;0.30;;;7.10;1.00;;;;;;5071906;28;20197;-72
2022/02/21 02:10:47;;;;;;;3.20;0.40;;;7.00;1.00;;;;;;5073431;28;20206;-72
2022/02/21 02:13:14;;;;;;;0.63;0.40;;;7.00;1.00;;;;;;5073775;28;20698;-72
2022/02/21 02:15:41;;;;;;;2.20;0.73;;;7.00;1.00;;;;;;5072208;28;20218;-72
2022/02/21 02:18:08;;;;;;;1.93;0.70;;;6.90;1.00;;;;;;5072645;28;20194;-72
2022/02/21 02:20:35;;;;;;;1.37;0.43;;;7.00;1.00;;;;;;5071342;28;20202;-72
2022/02/21 02:23:06;;;;;;;3.80;0.67;;;6.90;1.00;;;;;;5072249;28;20198;-72
2022/02/21 02:25:33;;;;;;;1.30;0.80;;;6.90;37.60;;;;;;5059900;28;20221;-72
2022/02/21 02:28:00;;;;;;;4.60;1.10;;;7.00;1.00;;;;;;5065831;28;20205;-72
2022/02/21 02:30:27;;;;;;;4.33;0.93;;;7.00;1.00;;;;;;5072351;28;20198;-72
2022/02/21 02:32:54;;;;;;;3.13;1.10;;;6.90;1.00;;;;;;5072866;28;20213;-72
2022/02/21 02:35:21;;;;;;;2.57;0.60;;;6.90;1.00;;;;;;5071839;28;20256;-72
2022/02/21 02:37:48;;;;;;;4.10;0.97;;;6.70;99.90;;;;;;5071786;28;20596;-72
2022/02/21 02:40:16;;;;;;;1.40;0.80;;;6.60;1.00;;;;;;5072506;28;20458;-72
2022/02/21 02:42:43;;;;;;;1.20;0.50;;;6.40;1.00;;;;;;5072338;28;20309;-72
2022/02/21 02:45:10;;;;;;;3.23;0.97;;;6.20;99.90;;;;;;5071008;28;20203;-72
2022/02/21 02:47:37;;;;;;;2.83;0.70;;;6.20;1.00;;;;;;5085169;28;20655;-72
2022/02/21 02:50:05;;;;;;;3.80;0.80;;;6.20;99.90;;;;;;5081257;28;20659;-72
2022/02/21 02:52:32;;;;;;;5.30;0.77;;;6.20;1.00;;;;;;5072044;28;20209;-72
2022/02/21 02:54:59;;;;;;;3.03;0.77;;;6.20;99.90;;;;;;5071524;28;20290;-72
2022/02/21 02:57:27;;;;;;;4.97;1.60;;;6.00;1.00;;;;;;5071299;28;20200;-72
2022/02/21 02:59:54;;;;;;;2.83;0.87;;;6.00;1.00;;;;;;5072194;28;20679;-72
2022/02/21 03:02:21;;;;;;;3.70;0.70;;;5.80;99.90;;;;;;5081654;28;20297;-72
2022/02/21 03:04:47;;;;;;;3.10;0.60;;;5.70;99.90;;;;;;5062685;28;20635;-72
2022/02/21 03:07:14;;;;;;;5.57;0.83;;;5.70;99.90;;;;;;5071100;28;20202;-72
2022/02/21 03:09:41;;;;;;;2.83;0.60;;;5.60;99.90;;;;;;5070225;28;20298;-72
2022/02/21 03:12:09;;;;;;;6.73;0.93;;;5.50;99.90;;;;;;5083103;28;20209;-72
2022/02/21 03:14:37;;;;;;;3.73;1.00;;;5.60;13.80;;;;;;5072064;28;20208;-72
2022/02/21 03:17:05;;;;;;;5.00;0.90;;;5.60;1.00;;;;;;5071654;28;20294;-72
2022/02/21 03:19:32;;;;;;;2.37;0.90;;;5.80;99.90;;;;;;5071616;28;20234;-71
2022/02/21 03:22:01;;;;;;;4.03;0.70;;;5.80;99.90;;;;;;5070734;28;20731;-71
2022/02/21 03:24:28;;;;;;;5.73;1.80;;;5.60;1.00;;;;;;5071599;28;20636;-71
2022/02/21 03:26:54;;;;;;;3.20;0.83;;;4.90;99.90;;;;;;5071540;28;20220;-71
2022/02/21 03:29:21;;;;;;;4.73;1.10;;;4.80;1.00;;;;;;5071785;28;20206;-71
2022/02/21 03:31:49;;;;;;;7.27;1.20;;;4.90;98.70;;;;;;5071535;28;20202;-71
2022/02/21 03:34:16;;;;;;;3.97;0.77;;;5.00;91.20;;;;;;5071941;28;20194;-73
2022/02/21 03:36:43;;;;;;;4.50;0.93;;;5.00;1.00;;;;;;5071550;28;20202;-72
2022/02/21 03:39:10;;;;;;;4.57;1.10;;;5.10;99.90;;;;;;5071656;28;20206;-72
2022/02/21 03:41:37;;;;;;;8.67;1.57;;;5.10;1.00;;;;;;5071265;28;20208;-72
2022/02/21 03:44:04;;;;;;;3.20;1.20;;;5.10;99.90;;;;;;5071565;28;20194;-72
2022/02/21 03:46:31;;;;;;;5.03;1.37;;;5.10;1.00;;;;;;5071704;28;20199;-72
2022/02/21 03:48:59;;;;;;;9.60;1.53;;;5.10;1.00;;;;;;5056927;28;20289;-72
2022/02/21 03:51:26;;;;;;;8.03;1.70;;;5.10;1.00;;;;;;5070508;28;20214;-72
2022/02/21 03:53:53;;;;;;;8.73;1.50;;;5.10;99.90;;;;;;5070712;28;20296;-72
2022/02/21 03:56:20;;;;;;;10.80;1.93;;;5.00;99.90;;;;;;5066977;28;20195;-72
2022/02/21 03:58:47;;;;;;;6.93;1.80;;;5.10;73.60;;;;;;5074242;28;20298;-71
2022/02/21 04:01:13;;;;;;;7.43;1.63;;;5.00;99.90;;;;;;5074875;28;20724;-71
2022/02/21 04:03:40;;;;;;;9.40;1.97;;;5.00;1.00;;;;;;5075529;28;20202;-71
2022/02/21 04:06:09;;;;;;;13.30;2.07;;;5.10;33.10;;;;;;5074762;28;20203;-71
2022/02/21 04:08:35;;;;;;;9.90;2.13;;;5.20;1.00;;;;;;5074687;28;20206;-72
2022/02/21 04:11:02;;;;;;;11.10;2.00;;;5.30;99.90;;;;;;5074648;28;20217;-72
2022/02/21 04:13:29;;;;;;;2.23;1.17;;;5.20;1.00;;;;;;5075243;28;20210;-72
2022/02/21 04:15:56;;;;;;;11.27;1.80;;;5.20;99.90;;;;;;5074903;28;20224;-72
2022/02/21 04:18:23;;;;;;;8.20;1.50;;;5.10;1.00;;;;;;5075585;28;20210;-72
2022/02/21 04:20:50;;;;;;;6.37;1.20;;;5.00;99.90;;;;;;5074501;28;20321;-72
2022/02/21 04:23:18;;;;;;;5.67;2.17;;;5.00;93.50;;;;;;5075707;28;20656;-72
2022/02/21 04:25:46;;;;;;;6.60;1.60;;;5.00;99.90;;;;;;5074854;28;20202;-72
2022/02/21 04:28:16;;;;;;;9.10;1.80;;;5.00;99.90;;;;;;5074811;28;20245;-73
2022/02/21 04:30:43;;;;;;;9.03;2.03;;;5.00;1.00;;;;;;5073840;28;20657;-73
2022/02/21 04:33:10;;;;;;;10.67;1.83;;;5.10;99.90;;;;;;5074984;28;20206;-73
2022/02/21 04:35:37;;;;;;;7.60;1.60;;;5.10;1.00;;;;;;5075075;28;20632;-72
2022/02/21 04:38:04;;;;;;;8.77;1.90;;;5.00;1.00;;;;;;5075020;28;20228;-72
2022/02/21 04:40:32;;;;;;;10.37;2.43;;;5.00;1.00;;;;;;5074994;28;20226;-72
2022/02/21 04:42:59;;;;;;;6.43;1.47;;;5.00;99.90;;;;;;5074746;28;20206;-72
2022/02/21 04:45:26;;;;;;;9.20;1.70;;;5.10;1.00;;;;;;5074017;28;20210;-72
2022/02/21 04:47:53;;;;;;;9.17;2.50;;;5.00;99.90;;;;;;5074853;28;20214;-72
2022/02/21 04:50:20;;;;;;;8.50;1.80;;;5.00;1.00;;;;;;5074138;28;20558;-72
2022/02/21 04:52:47;;;;;;;8.07;2.00;;;5.00;1.00;;;;;;5073953;28;20210;-72
2022/02/21 04:55:15;;;;;;;7.83;1.83;;;5.00;99.90;;;;;;5074975;28;20564;-72
2022/02/21 04:57:43;;;;;;;9.53;2.00;;;5.00;1.00;;;;;;5075100;28;20685;-73
2022/02/21 05:00:15;;;;;;;8.33;1.70;;;4.90;1.00;;;;;;5074560;28;20222;-72
2022/02/21 05:02:42;;;;;;;10.80;2.17;;;4.80;99.90;;;;;;5068191;28;20210;-72
2022/02/21 05:05:11;;;;;;;7.70;2.10;;;4.80;99.90;;;;;;5068011;28;20573;-72
2022/02/21 05:07:39;;;;;;;8.63;1.80;;;4.70;1.00;;;;;;5064854;28;20634;-72
2022/02/21 05:10:07;;;;;;;4.47;1.53;;;4.70;99.90;;;;;;5072710;28;20204;-72
2022/02/21 05:12:33;;;;;;;7.17;1.73;;;4.70;99.90;;;;;;5066355;28;20273;-72
2022/02/21 05:15:02;;;;;;;5.63;1.40;;;4.60;66.40;;;;;;5073827;28;20194;-72
2022/02/21 05:17:29;;;;;;;4.37;1.30;;;4.60;1.00;;;;;;5085737;28;20202;-72
2022/02/21 05:19:56;;;;;;;6.20;1.40;;;4.60;1.00;;;;;;5093979;28;20315;-73
2022/02/21 05:22:23;;;;;;;7.63;1.93;;;4.60;99.90;;;;;;5094051;28;20202;-72
2022/02/21 05:24:50;;;;;;;8.30;3.33;;;4.70;99.90;;;;;;5093773;28;20217;-72
2022/02/21 05:27:18;;;;;;;7.00;2.40;;;4.70;99.90;;;;;;5093542;28;20201;-72
2022/02/21 05:29:45;;;;;;;9.70;1.73;;;4.60;1.00;;;;;;5094129;28;20674;-72
2022/02/21 05:32:13;;;;;;;7.60;1.87;;;4.60;1.00;;;;;;5093987;28;20210;-72
2022/02/21 05:34:40;;;;;;;9.90;1.67;;;4.60;1.00;;;;;;5094428;28;20204;-72
2022/02/21 05:37:07;;;;;;;4.77;1.10;;;4.60;1.00;;;;;;5093454;28;20210;-72
2022/02/21 05:39:34;;;;;;;1.70;0.53;;;4.50;1.00;;;;;;5094040;28;20231;-72
2022/02/21 05:42:01;;;;;;;1.50;0.53;;;3.60;99.90;;;;;;5093352;28;20208;-72
2022/02/21 05:44:28;;;;;;;1.83;0.70;;;3.30;99.90;;;;;;5093298;28;20213;-72
2022/02/21 05:46:56;;;;;;;4.23;0.90;;;3.20;1.00;;;;;;5093684;28;20296;-72
2022/02/21 05:49:24;;;;;;;1.73;0.63;;;3.00;99.90;;;;;;5094020;28;20197;-72
2022/02/21 05:51:51;;;;;;;2.93;0.97;;;3.00;99.90;;;;;;5092967;28;20538;-72
2022/02/21 05:54:18;;;;;;;2.90;1.27;;;3.00;99.90;;;;;;5093263;28;20201;-72
2022/02/21 05:56:45;;;;;;;6.73;1.20;;;3.00;99.90;;;;;;5093451;28;20576;-72
2022/02/21 05:59:11;;;;;;;5.73;1.23;;;3.20;1.00;;;;;;5093283;28;20201;-72
2022/02/21 06:01:38;;;;;;;6.83;2.07;;;3.30;1.00;;;;;;5092859;28;20252;-72
2022/02/21 06:04:06;;;;;;;7.93;1.63;;;3.50;1.00;;;;;;5093086;28;20563;-72
2022/02/21 06:06:34;;;;;;;8.63;2.00;;;3.60;99.90;;;;;;5093347;28;20746;-72
2022/02/21 06:09:02;;;;;;;9.40;1.47;;;3.80;99.90;;;;;;5093637;28;20232;-72
2022/02/21 06:11:29;;;;;;;6.87;1.37;;;3.80;1.00;;;;;;5092620;28;20201;-72
2022/02/21 06:13:56;;;;;;;3.60;1.07;;;3.80;1.00;;;;;;5092900;28;20206;-72
2022/02/21 06:16:23;;;;;;;10.20;1.60;;;3.80;1.00;;;;;;5092786;28;20235;-72
2022/02/21 06:18:50;;;;;;;6.37;1.67;;;3.90;99.90;;;;;;5093554;28;20762;-72
2022/02/21 06:21:17;;;;;;;7.20;1.60;;;3.90;99.90;;;;;;5091749;28;20576;-72
2022/02/21 06:23:45;;;;;;;9.77;1.70;;;3.90;99.90;;;;;;5093532;28;20572;-72
2022/02/21 06:26:12;;;;;;;6.93;1.43;;;4.00;99.90;;;;;;5093109;28;20206;-72
2022/02/21 06:28:39;;;;;;;7.17;1.47;;;4.00;1.00;;;;;;5092845;28;20214;-72
2022/02/21 06:31:09;;;;;;;3.90;0.90;;;4.00;1.00;;;;;;5092884;28;20201;-72
2022/02/21 06:33:36;;;;;;;4.87;1.60;;;4.00;1.00;;;;;;5092958;28;20252;-72
2022/02/21 06:36:03;;;;;;;4.30;1.50;;;4.10;1.00;;;;;;5093074;28;20213;-72
2022/02/21 06:38:30;;;;;;;7.20;1.60;;;4.10;99.90;;;;;;5093158;28;20205;-72
2022/02/21 06:40:58;;;;;;;6.97;1.70;;;4.10;1.00;;;;;;5092360;28;20228;-72
2022/02/21 06:43:25;;;;;;;5.90;1.40;;;4.10;1.00;;;;;;5092368;28;20201;-72
2022/02/21 06:45:52;;;;;;;9.13;1.60;;;4.20;1.00;;;;;;5092928;28;20209;-72
2022/02/21 06:48:19;;;;;;;5.63;1.20;;;4.10;1.00;;;;;;5092840;28;20209;-72
2022/02/21 06:50:47;;;;;;;6.83;3.07;;;4.00;99.90;;;;;;5091328;28;20193;-72
2022/02/21 06:53:13;;;;;;;6.87;1.87;;;4.00;99.90;;;;;;5091870;28;20213;-72
2022/02/21 06:55:40;;;;;;;9.13;1.90;;;4.00;99.90;;;;;;5091973;28;20202;-73
2022/02/21 06:58:10;;;;;;;10.00;1.60;;;3.90;1.00;;;;;;5093019;28;20216;-73
2022/02/21 07:00:38;;;;;;;8.83;1.57;;;3.90;83.10;;;;;;5091540;28;20225;-72
2022/02/21 07:03:05;;;;;;;8.37;1.40;;;4.00;1.00;;;;;;5092249;28;20255;-72
2022/02/21 07:05:31;;;;;;;8.27;1.73;;;4.00;1.00;;;;;;5092567;28;20205;-72
2022/02/21 07:07:58;;;;;;;12.17;1.93;;;4.00;1.00;;;;;;5092298;28;20627;-72
2022/02/21 07:10:25;;;;;;;12.23;1.80;;;4.10;1.00;;;;;;5091822;28;20208;-72
2022/02/21 07:12:52;;;;;;;11.20;2.20;;;4.10;1.00;;;;;;5092396;28;20300;-72
2022/02/21 07:15:20;;;;;;;5.43;1.70;;;4.20;1.00;;;;;;5091482;28;20292;-72
2022/02/21 07:17:47;;;;;;;8.27;1.90;;;4.20;1.00;;;;;;5092453;28;20201;-72
2022/02/21 07:20:15;;;;;;;5.90;1.30;;;4.30;1.00;;;;;;5092425;28;20703;-72
2022/02/21 07:22:42;;;;;;;8.97;2.00;;;4.40;1.00;;;;;;5091539;28;20290;-72
2022/02/21 07:25:10;;;;;;;14.27;2.17;;;4.40;77.80;;;;;;5092691;28;20201;-72
2022/02/21 07:27:45;;;;;;;6.13;1.70;;;4.50;99.40;;;;;;5091677;28;20205;-72
2022/02/21 07:30:13;;;;;;;8.13;1.57;;;4.50;51.00;;;;;;5092169;28;20543;-72
2022/02/21 07:32:42;;;;;;;10.27;1.93;;;4.50;1.00;;;;;;5090679;28;20666;-72
2022/02/21 07:35:10;;;;;;;3.47;1.57;;;4.50;1.00;;;;;;5092305;28;20198;-72
2022/02/21 07:37:39;;;;;;;5.63;1.40;;;4.50;99.90;;;;;;5091825;28;20210;-72
2022/02/21 07:40:06;;;;;;;10.13;2.00;;;4.50;99.90;;;;;;5091077;28;20202;-73
2022/02/21 07:42:33;;;;;;;8.10;1.53;;;4.50;99.90;;;;;;5092304;28;20589;-73
2022/02/21 07:45:00;;;;;;;8.20;1.83;;;4.50;99.90;;;;;;5090687;28;20219;-72
2022/02/21 07:47:27;;;;;;;9.50;1.73;;;4.60;1.00;;;;;;5091527;28;20240;-72
2022/02/21 07:49:55;;;;;;;12.43;2.40;;;4.60;1.00;;;;;;5090962;28;20209;-72
2022/02/21 07:52:22;;;;;;;9.13;1.47;;;4.70;1.00;;;;;;5091583;28;20216;-72
2022/02/21 07:54:50;;;;;;;6.87;1.83;;;4.70;1.00;;;;;;5092306;28;20542;-72
2022/02/21 07:57:17;;;;;;;6.13;1.77;;;5.10;99.90;;;;;;5092048;28;20209;-72
2022/02/21 07:59:44;;;;;;;10.23;1.80;;;5.20;99.90;;;;;;5091607;28;20201;-72
2022/02/21 08:02:11;;;;;;;8.77;2.73;;;5.00;99.90;;;;;;5083608;28;20317;-72
2022/02/21 08:04:38;;;;;;;8.40;2.13;;;5.00;1.00;;;;;;5071047;28;20656;-72
2022/02/21 08:07:06;;;;;;;11.87;2.53;;;5.00;1.00;;;;;;5070812;28;20214;-72
2022/02/21 08:09:34;;;;;;;11.70;2.50;;;5.00;1.00;;;;;;5071803;28;20209;-72
2022/02/21 08:12:04;;;;;;;14.07;2.10;;;5.00;99.90;;;;;;5071526;28;20199;-72
2022/02/21 08:14:32;;;;;;;7.40;2.30;;;5.00;99.90;;;;;;5071243;28;20562;-72
2022/02/21 08:16:59;;;;;;;10.93;2.40;;;5.00;1.00;;;;;;5070828;28;20213;-72
2022/02/21 08:19:26;;;;;;;6.63;2.00;;;5.00;1.00;;;;;;5071731;28;20206;-71
2022/02/21 08:21:53;;;;;;;8.50;2.40;;;5.00;1.00;;;;;;5071576;28;20293;-72
2022/02/21 08:24:21;;;;;;;12.33;1.97;;;5.00;1.00;;;;;;5070664;28;20202;-72
2022/02/21 08:26:48;;;;;;;16.03;2.50;;;4.90;99.90;;;;;;5071327;28;20206;-72
2022/02/21 08:29:15;;;;;;;9.73;2.10;;;5.00;99.90;;;;;;5071329;28;20619;-71
2022/02/21 08:31:44;;;;;;;6.20;2.13;;;5.10;99.90;;;;;;5070534;28;20213;-72
2022/02/21 08:34:11;;;;;;;9.97;2.80;;;5.10;1.00;;;;;;5071836;28;20206;-72
2022/02/21 08:36:38;;;;;;;10.30;2.30;;;5.20;1.00;;;;;;5070572;28;20202;-72
2022/02/21 08:39:05;;;;;;;7.53;2.50;;;5.30;99.90;;;;;;5070692;28;20221;-72
2022/02/21 08:41:33;;;;;;;11.27;2.97;;;5.30;99.90;;;;;;5071321;28;20225;-72
2022/02/21 08:44:00;;;;;;;9.23;2.80;;;5.20;99.90;;;;;;5072461;28;20248;-71
2022/02/21 08:46:27;;;;;;;11.70;3.30;;;5.30;98.10;;;;;;5074684;28;20222;-72
2022/02/21 08:48:54;;;;;;;10.97;2.90;;;5.40;53.50;;;;;;5074190;28;20206;-72
2022/02/21 08:51:21;;;;;;;13.90;3.00;;;5.40;9.50;;;;;;5073083;28;20201;-72
2022/02/21 08:53:48;;;;;;;10.30;3.60;;;5.40;99.90;;;;;;5074727;28;20206;-72
2022/02/21 08:56:15;;;;;;;7.83;3.07;;;5.40;42.50;;;;;;5069227;28;20207;-72
2022/02/21 08:58:43;;;;;;;9.70;3.33;;;5.40;1.00;;;;;;5075670;28;20208;-72
2022/02/21 09:01:10;;;;;;;11.07;2.87;;;5.50;1.00;;;;;;5075178;28;20233;-72
2022/02/21 09:03:37;;;;;;;10.33;3.00;;;5.50;99.90;;;;;;5074458;28;20268;-72
2022/02/21 09:06:06;;;;;;;8.77;3.10;;;5.50;1.00;;;;;;5074425;28;20212;-70
2022/02/21 09:08:33;;;;;;;15.73;4.30;;;5.50;41.20;;;;;;5076103;28;20210;-72
2022/02/21 09:11:01;;;;;;;16.47;3.07;;;5.50;1.00;;;;;;5069529;28;20321;-72
2022/02/21 09:13:28;;;;;;;8.77;3.17;;;5.50;1.00;;;;;;5073807;28;20225;-72
2022/02/21 09:15:56;;;;;;;12.30;3.63;;;5.50;1.00;;;;;;5073251;28;20245;-72
2022/02/21 09:18:23;;;;;;;11.07;3.13;;;5.50;1.00;;;;;;5074343;28;20237;-72
2022/02/21 09:20:51;;;;;;;15.10;3.20;;;5.50;99.90;;;;;;5073481;28;20222;-72
2022/02/21 09:23:18;;;;;;;8.27;3.00;;;5.50;1.00;;;;;;5073438;28;20237;-72
2022/02/21 09:25:45;;;;;;;10.27;3.40;;;5.50;1.00;;;;;;5073978;28;20549;-72
2022/02/21 09:28:12;;;;;;;12.00;3.43;;;5.60;1.00;;;;;;5082985;28;20216;-72
2022/02/21 09:30:38;;;;;;;10.63;3.53;;;5.60;1.00;;;;;;5094412;28;20205;-73
2022/02/21 09:33:07;;;;;;;9.33;3.03;;;5.60;1.00;;;;;;5093774;28;20212;-73
2022/02/21 09:35:33;;;;;;;12.17;3.30;;;5.70;1.00;;;;;;5094285;28;20289;-72
2022/02/21 09:38:00;;;;;;;8.77;3.67;;;5.70;1.00;;;;;;5084130;28;20683;-72
2022/02/21 09:40:28;;;;;;;9.10;3.33;;;5.70;1.00;;;;;;5069079;28;20210;-72
2022/02/21 09:42:59;;;;;;;13.00;3.23;;;5.70;1.00;;;;;;5087624;28;20198;-72
2022/02/21 09:45:28;;;;;;;11.37;3.90;;;5.70;1.00;;;;;;5077636;28;20660;-72
2022/02/21 09:47:57;;;;;;;13.53;3.70;;;5.70;1.00;;;;;;5073768;28;20317;-72
2022/02/21 09:50:28;;;;;;;9.13;3.50;;;5.70;1.00;;;;;;5072876;28;20198;-72
2022/02/21 09:53:00;;;;;;;16.90;3.87;;;5.70;1.00;;;;;;5073315;28;20268;-72
2022/02/21 09:55:28;;;;;;;14.73;3.73;;;5.80;1.00;;;;;;5073021;28;20241;-72
2022/02/21 09:57:56;;;;;;;8.90;2.97;;;5.90;1.00;;;;;;5073384;28;20202;-72
2022/02/21 10:00:23;;;;;;;11.33;3.00;;;6.00;99.90;;;;;;5073057;28;20194;-72
2022/02/21 10:02:51;;;;;;;12.70;3.13;;;6.10;1.00;;;;;;5073585;28;20218;-72
2022/02/21 10:05:21;;;;;;;7.33;2.87;;;6.10;99.90;;;;;;5072575;28;20207;-72
2022/02/21 10:07:50;;;;;;;11.90;3.10;;;6.10;99.90;;;;;;5073685;28;20213;-72
2022/02/21 10:10:19;;;;;;;9.57;2.60;;;6.20;99.90;;;;;;5073601;28;20562;-72
2022/02/21 10:12:47;;;;;;;14.47;3.07;;;6.20;1.00;;;;;;5073574;28;20568;-72
2022/02/21 10:15:16;;;;;;;14.00;3.27;;;6.10;54.30;;;;;;5072599;28;20209;-72
2022/02/21 10:17:43;;;;;;;11.17;2.60;;;6.10;99.90;;;;;;5073200;28;20537;-72
2022/02/21 10:20:11;;;;;;;12.47;3.07;;;6.10;99.90;;;;;;5072786;28;20202;-72
2022/02/21 10:22:38;;;;;;;9.27;2.83;;;6.10;1.00;;;;;;5073093;28;20232;-72
2022/02/21 10:25:17;;;;;;;12.37;3.10;;;6.00;1.00;;;;;;5072552;28;20229;-72
2022/02/21 10:27:45;;;;;;;15.77;3.07;;;6.00;1.00;;;;;;5072564;28;20225;-72
2022/02/21 10:30:16;;;;;;;12.17;2.63;;;6.10;2.30;;;;;;5072306;28;20563;-72
2022/02/21 10:32:44;;;;;;;11.13;2.70;;;6.20;99.90;;;;;;5072912;28;20198;-72
2022/02/21 10:35:13;;;;;;;15.33;3.70;;;6.10;1.00;;;;;;5091484;28;20230;-72
2022/02/21 10:37:44;;;;;;;10.60;3.50;;;6.10;99.90;;;;;;5092078;28;20206;-72
2022/02/21 10:40:16;;;;;;;9.60;3.10;;;6.10;1.00;;;;;;5093007;28;20402;-72
2022/02/21 10:42:47;;;;;;;7.83;3.10;;;6.10;1.00;;;;;;5091653;28;20217;-72
2022/02/21 10:45:16;;;;;;;11.53;2.80;;;6.10;1.00;;;;;;5092390;28;20202;-72
2022/02/21 10:47:59;;;;;;;11.37;3.03;;;6.10;1.00;;;;;;5091945;28;20201;-72
2022/02/21 10:50:27;;;;;;;13.10;2.97;;;6.10;1.00;;;;;;5092046;28;20213;-72
2022/02/21 10:52:54;;;;;;;9.83;3.77;;;6.10;1.00;;;;;;5092559;28;20224;-72
2022/02/21 10:55:21;;;;;;;11.97;2.87;;;6.20;1.00;;;;;;5092630;28;20243;-72
2022/02/21 10:57:49;;;;;;;9.50;2.73;;;6.20;1.00;;;;;;5091314;28;20201;-72
2022/02/21 11:00:16;;;;;;;8.33;2.87;;;6.20;1.00;;;;;;5093080;28;20206;-72
2022/02/21 11:02:44;;;;;;;11.73;3.07;;;6.30;1.00;;;;;;5092770;28;20228;-72
2022/02/21 11:05:12;;;;;;;7.50;2.50;;;6.30;1.00;;;;;;5091627;28;20296;-72
2022/02/21 11:07:41;;;;;;;10.37;3.67;;;6.30;1.00;;;;;;5092414;28;20221;-72
2022/02/21 11:10:09;;;;;;;12.03;3.13;;;6.20;99.90;;;;;;5092691;28;20239;-72
2022/02/21 11:12:39;;;;;;;17.13;3.37;;;6.20;1.00;;;;;;5091062;28;20208;-72
2022/02/21 11:15:08;;;;;;;12.13;3.00;;;6.20;1.00;;;;;;5090983;28;20205;-72
2022/02/21 11:17:37;;;;;;;5.63;2.63;;;6.20;1.00;;;;;;5092019;28;20685;-72
2022/02/21 11:20:05;;;;;;;10.77;2.67;;;6.20;99.90;;;;;;5090995;28;20197;-72
2022/02/21 11:22:34;;;;;;;13.07;3.23;;;6.20;1.00;;;;;;5091560;28;20587;-72
2022/02/21 11:25:09;;;;;;;9.13;2.80;;;6.30;1.00;;;;;;5051577;28;20656;-72
2022/02/21 11:27:48;;;;;;;9.83;2.70;;;6.30;1.00;;;;;;5051409;28;20247;-72
2022/02/21 11:30:20;;;;;;;5.77;2.63;;;6.40;1.00;;;;;;5037548;28;20575;-72
2022/02/21 11:33:07;;;;;;;7.23;2.50;;;6.40;99.90;;;;;;5071299;28;20194;-72
2022/02/21 11:35:35;;;;;;;8.07;2.70;;;6.40;99.90;;;;;;5070827;28;20206;-72
2022/02/21 11:38:15;;;;;;;8.20;2.20;;;6.30;1.00;;;;;;5071542;28;20662;-72
2022/02/21 11:40:57;;;;;;;3.67;1.77;;;6.30;99.90;;;;;;5071510;28;20256;-72
2022/02/21 11:43:32;;;;;;;6.80;2.37;;;6.20;99.90;;;;;;5070023;28;20222;-72
2022/02/21 11:46:05;;;;;;;6.43;1.83;;;6.20;1.00;;;;;;5070160;28;20210;-72
2022/02/21 11:48:54;;;;;;;6.93;2.00;;;6.10;1.00;;;;;;5069614;28;20202;-72
2022/02/21 11:51:33;;;;;;;6.73;2.20;;;6.10;31.00;;;;;;5070245;28;20248;-72
2022/02/21 11:54:39;;;;;;;9.53;2.17;;;5.90;1.00;;;;;;5071265;28;20214;-72
2022/02/21 11:57:09;;;;;;;7.40;2.17;;;5.80;1.00;;;;;;5058800;28;20206;-72
2022/02/21 11:59:36;;;;;;;11.23;2.77;;;5.60;99.90;;;;;;5069761;28;20202;-72
2022/02/21 12:02:12;;;;;;;6.10;1.87;;;5.50;1.00;;;;;;5070441;28;20240;-71
2022/02/21 12:04:56;;;;;;;4.80;1.70;;;5.50;1.00;;;;;;5070319;28;20222;-72
2022/02/21 12:07:28;;;;;;;5.87;2.50;;;5.50;1.00;;;;;;5070827;28;20259;-72
2022/02/21 12:10:21;;;;;;;8.70;1.97;;;5.40;99.90;;;;;;5070061;28;20580;-71
2022/02/21 12:12:54;;;;;;;11.03;2.00;;;5.30;1.00;;;;;;5030641;28;1127897;-70
2022/02/21 12:15:21;;;;;;;8.77;2.30;;;5.10;1.00;;;;;;5071558;28;20212;-71
2022/02/21 12:18:25;;;;;;;4.97;1.90;;;5.10;1.00;;;;;;5071831;28;20672;-71
2022/02/21 12:21:08;;;;;;;8.13;2.13;;;5.00;1.00;;;;;;5074605;28;20206;-72
2022/02/21 12:23:35;;;;;;;5.20;2.27;;;4.90;99.90;;;;;;5075552;28;20226;-71
2022/02/21 12:26:16;;;;;;;2.70;1.40;;;4.80;99.90;;;;;;5074642;28;20569;-70
2022/02/21 12:28:44;;;;;;;3.93;2.10;;;4.90;1.00;;;;;;5075004;28;20202;-72
2022/02/21 12:31:24;;;;;;;7.10;2.50;;;4.90;1.00;;;;;;5074436;28;20205;-71
2022/02/21 12:33:57;;;;;;;5.03;2.43;;;4.80;1.00;;;;;;5075442;28;20202;-72
2022/02/21 12:36:33;;;;;;;5.50;2.20;;;4.80;99.90;;;;;;5074695;28;20612;-71
2022/02/21 12:39:01;;;;;;;5.87;2.13;;;4.80;99.90;;;;;;5075271;28;20205;-71
2022/02/21 12:41:32;;;;;;;3.57;2.13;;;4.80;1.00;;;;;;5074847;28;20202;-71
2022/02/21 12:44:02;;;;;;;3.73;2.10;;;4.80;99.90;;;;;;5074438;28;20210;-71
2022/02/21 12:46:32;;;;;;;4.87;1.80;;;4.80;99.90;;;;;;5074398;28;20202;-71
2022/02/21 12:49:00;;;;;;;5.53;2.20;;;4.70;99.90;;;;;;5073975;28;20213;-70
2022/02/21 12:51:30;;;;;;;4.53;1.87;;;4.70;1.00;;;;;;5074295;28;20218;-70
2022/02/21 12:54:04;;;;;;;1.90;1.77;;;4.70;1.00;;;;;;5074849;28;20206;-71
2022/02/21 12:56:42;;;;;;;2.70;1.60;;;4.60;1.00;;;;;;5074853;28;20684;-71
2022/02/21 12:59:11;;;;;;;4.37;1.43;;;4.60;1.00;;;;;;5074435;28;20210;-71
2022/02/21 13:01:38;;;;;;;7.73;1.90;;;4.70;1.00;;;;;;5074664;28;20209;-71
2022/02/21 13:04:06;;;;;;;1.83;1.40;;;4.70;1.00;;;;;;5070645;28;21467;-70
2022/02/21 13:06:35;;;;;;;3.10;1.57;;;4.80;1.00;;;;;;5066249;28;20237;-71